Time;durP1;ratioP1;P1;durP2;ratioP2;P2;SDS_P1;SDS_P2;PMS_P1;PMS_P2;Temp;Humidity;BMP_temperature;BMP_pressure;BME280_temperature;BME280_humidity;BME280_pressure;Samples;Min_cycle;Max_cycle;Signal;HPM_P1;HPM_P2
2021/08/25 00:01:43;;;;;;;9.32;2.72;;;;;;;;;;4958770;28;20113;-57
2021/08/25 00:04:11;;;;;;;8.02;2.58;;;;;;;;;;4963766;28;20121;-55
2021/08/25 00:06:37;;;;;;;8.43;2.83;;;;;;;;;;4957055;28;20075;-55
2021/08/25 00:09:06;;;;;;;8.63;3.10;;;;;;;;;;4967663;28;20058;-55
2021/08/25 00:11:35;;;;;;;5.65;2.45;;;;;;;;;;4979163;28;20047;-57
2021/08/25 00:14:02;;;;;;;6.68;2.63;;;;;;;;;;4966316;28;20061;-55
2021/08/25 00:16:28;;;;;;;6.60;2.70;;;;;;;;;;4998769;28;20100;-56
2021/08/25 00:18:57;;;;;;;7.32;2.42;;;;;;;;;;5002817;28;20042;-57
2021/08/25 00:21:25;;;;;;;6.45;2.47;;;;;;;;;;4980225;28;20058;-55
2021/08/25 00:23:51;;;;;;;5.95;2.83;;;;;;;;;;4966578;28;20043;-54
2021/08/25 00:26:18;;;;;;;8.07;2.90;;;;;;;;;;4981967;28;20039;-56
2021/08/25 00:28:45;;;;;;;9.65;2.78;;;;;;;;;;4983740;28;20058;-57
2021/08/25 00:31:13;;;;;;;7.68;2.78;;;;;;;;;;4987591;28;20042;-55
2021/08/25 00:33:40;;;;;;;11.50;3.17;;;;;;;;;;4987068;28;20085;-55
2021/08/25 00:36:06;;;;;;;7.60;2.88;;;;;;;;;;4979706;28;20050;-54
2021/08/25 00:38:37;;;;;;;6.90;3.00;;;;;;;;;;4968145;28;20062;-57
2021/08/25 00:41:03;;;;;;;7.35;2.58;;;;;;;;;;4969336;28;20050;-50
2021/08/25 00:43:30;;;;;;;8.38;3.17;;;;;;;;;;4987264;28;20061;-57
2021/08/25 00:45:56;;;;;;;13.70;3.25;;;;;;;;;;4998592;28;20069;-56
2021/08/25 00:48:25;;;;;;;9.82;2.80;;;;;;;;;;5005296;28;20145;-56
2021/08/25 00:50:52;;;;;;;10.15;3.53;;;;;;;;;;5002805;28;20038;-56
2021/08/25 00:53:22;;;;;;;8.93;2.70;;;;;;;;;;4985409;28;20043;-56
2021/08/25 00:55:50;;;;;;;10.45;3.30;;;;;;;;;;4984661;28;20035;-56
2021/08/25 00:58:17;;;;;;;10.38;2.85;;;;;;;;;;4978863;28;20054;-56
2021/08/25 01:00:46;;;;;;;9.25;2.53;;;;;;;;;;4985280;28;20102;-55
2021/08/25 01:03:14;;;;;;;9.15;2.90;;;;;;;;;;4982248;28;20034;-56
2021/08/25 01:05:41;;;;;;;;;;;;;;;;;;4981886;28;20055;-56
2021/08/25 01:08:08;;;;;;;5.80;2.63;;;;;;;;;;4973040;28;19937;-53
2021/08/25 01:10:34;;;;;;;9.13;3.40;;;;;;;;;;4990039;28;20042;-56
2021/08/25 01:13:03;;;;;;;11.68;2.90;;;;;;;;;;4970160;28;20116;-54
2021/08/25 01:15:30;;;;;;;9.38;3.10;;;;;;;;;;4981528;28;20059;-57
2021/08/25 01:17:57;;;;;;;7.65;3.47;;;;;;;;;;4982632;28;20046;-57
2021/08/25 01:20:25;;;;;;;8.60;3.28;;;;;;;;;;4967301;28;20038;-55
2021/08/25 01:22:52;;;;;;;;;;;;;;;;;;4964644;28;20027;-56
2021/08/25 01:25:18;;;;;;;7.90;3.15;;;;;;;;;;4982136;28;19926;-56
2021/08/25 01:27:49;;;;;;;7.40;2.90;;;;;;;;;;4979975;28;20042;-56
2021/08/25 01:30:18;;;;;;;9.23;3.33;;;;;;;;;;4982423;28;20043;-56
2021/08/25 01:32:44;;;;;;;11.43;3.42;;;;;;;;;;4965098;28;20053;-54
2021/08/25 01:35:11;;;;;;;9.20;3.22;;;;;;;;;;5002294;28;20127;-55
2021/08/25 01:37:38;;;;;;;12.20;3.33;;;;;;;;;;4985455;28;20048;-53
2021/08/25 01:40:07;;;;;;;10.15;3.65;;;;;;;;;;4984902;28;20132;-56
2021/08/25 01:42:34;;;;;;;8.30;3.65;;;;;;;;;;4985637;28;20049;-55
2021/08/25 01:45:01;;;;;;;7.07;3.22;;;;;;;;;;4999753;28;20062;-54
2021/08/25 01:47:28;;;;;;;8.98;3.20;;;;;;;;;;5004629;28;20038;-56
2021/08/25 01:49:55;;;;;;;7.37;3.07;;;;;;;;;;4998977;28;20162;-56
2021/08/25 01:52:22;;;;;;;11.23;3.78;;;;;;;;;;5003374;28;20050;-56
2021/08/25 01:54:49;;;;;;;10.13;3.85;;;;;;;;;;4974000;28;20103;-56
2021/08/25 01:57:15;;;;;;;10.07;4.03;;;;;;;;;;4966837;28;20133;-56
2021/08/25 01:59:42;;;;;;;7.10;3.47;;;;;;;;;;4989195;28;20058;-56
2021/08/25 02:02:09;;;;;;;12.43;4.10;;;;;;;;;;5001709;28;20042;-55
2021/08/25 02:04:37;;;;;;;11.40;4.10;;;;;;;;;;4992344;28;20042;-55
2021/08/25 02:07:03;;;;;;;;;;;;;;;;;;4982982;28;20067;-54
2021/08/25 02:09:30;;;;;;;7.38;3.20;;;;;;;;;;4979103;28;19922;-55
2021/08/25 02:11:57;;;;;;;8.70;3.28;;;;;;;;;;4966674;28;20057;-53
2021/08/25 02:14:23;;;;;;;8.65;3.67;;;;;;;;;;4980983;28;20050;-55
2021/08/25 02:16:49;;;;;;;9.77;4.00;;;;;;;;;;4986449;28;20042;-54
2021/08/25 02:19:16;;;;;;;14.48;3.72;;;;;;;;;;5000865;28;20042;-54
2021/08/25 02:21:44;;;;;;;10.98;3.92;;;;;;;;;;5001580;28;20046;-54
2021/08/25 02:24:11;;;;;;;11.47;3.93;;;;;;;;;;4988368;28;20038;-54
2021/08/25 02:26:37;;;;;;;10.45;3.95;;;;;;;;;;4979191;28;20280;-56
2021/08/25 02:29:05;;;;;;;9.82;3.40;;;;;;;;;;4966120;28;20091;-54
2021/08/25 02:31:31;;;;;;;11.23;3.65;;;;;;;;;;4979809;28;20098;-54
2021/08/25 02:33:58;;;;;;;11.02;4.00;;;;;;;;;;4966893;28;20050;-56
2021/08/25 02:36:25;;;;;;;9.52;3.40;;;;;;;;;;4990275;28;20034;-55
2021/08/25 02:38:53;;;;;;;12.73;4.05;;;;;;;;;;5000047;28;20046;-56
2021/08/25 02:41:20;;;;;;;15.82;3.65;;;;;;;;;;4997354;28;20030;-54
2021/08/25 02:43:46;;;;;;;8.73;3.80;;;;;;;;;;4984706;28;20042;-53
2021/08/25 02:46:13;;;;;;;10.48;3.70;;;;;;;;;;4997557;28;20049;-57
2021/08/25 02:48:40;;;;;;;8.68;4.07;;;;;;;;;;5001906;28;20132;-56
2021/08/25 02:51:07;;;;;;;11.27;3.45;;;;;;;;;;4996862;28;20048;-55
2021/08/25 02:53:33;;;;;;;8.52;3.80;;;;;;;;;;4984811;28;20131;-55
2021/08/25 02:56:01;;;;;;;9.68;3.78;;;;;;;;;;4978387;28;20059;-54
2021/08/25 02:58:28;;;;;;;12.43;3.97;;;;;;;;;;4965428;28;20051;-55
2021/08/25 03:00:55;;;;;;;8.25;3.80;;;;;;;;;;4963949;28;20046;-55
2021/08/25 03:03:21;;;;;;;9.13;3.75;;;;;;;;;;4979275;28;20045;-57
2021/08/25 03:05:48;;;;;;;11.73;3.53;;;;;;;;;;4982995;28;20074;-55
2021/08/25 03:08:14;;;;;;;9.45;3.58;;;;;;;;;;4979228;28;20065;-55
2021/08/25 03:10:41;;;;;;;8.85;3.72;;;;;;;;;;4993212;28;20042;-56
2021/08/25 03:13:09;;;;;;;8.50;3.80;;;;;;;;;;4975463;28;20046;-55
2021/08/25 03:15:36;;;;;;;9.65;3.90;;;;;;;;;;4981870;28;20050;-54
2021/08/25 03:18:02;;;;;;;6.50;3.60;;;;;;;;;;4980526;28;20042;-52
2021/08/25 03:20:29;;;;;;;8.30;4.03;;;;;;;;;;4981519;28;20046;-53
2021/08/25 03:22:56;;;;;;;10.43;4.22;;;;;;;;;;4979958;28;20050;-56
2021/08/25 03:25:22;;;;;;;9.40;4.13;;;;;;;;;;4966670;28;20051;-56
2021/08/25 03:27:49;;;;;;;8.63;4.13;;;;;;;;;;4978017;28;20026;-55
2021/08/25 03:30:17;;;;;;;10.02;3.53;;;;;;;;;;4965610;28;20144;-55
2021/08/25 03:32:43;;;;;;;8.35;3.53;;;;;;;;;;4982093;28;20038;-55
2021/08/25 03:35:10;;;;;;;11.82;3.80;;;;;;;;;;5001905;28;20057;-55
2021/08/25 03:37:38;;;;;;;9.60;3.53;;;;;;;;;;4979053;28;20054;-56
2021/08/25 03:40:05;;;;;;;10.88;3.72;;;;;;;;;;4981886;28;20050;-54
2021/08/25 03:42:32;;;;;;;8.98;3.80;;;;;;;;;;4962222;28;20042;-52
2021/08/25 03:44:58;;;;;;;7.97;3.60;;;;;;;;;;4980707;28;20053;-55
2021/08/25 03:47:26;;;;;;;9.25;3.90;;;;;;;;;;4982227;28;20078;-54
2021/08/25 03:49:53;;;;;;;8.20;3.80;;;;;;;;;;4981425;28;20121;-54
2021/08/25 03:52:19;;;;;;;7.32;3.80;;;;;;;;;;4984271;28;20046;-56
2021/08/25 03:54:48;;;;;;;12.73;3.72;;;;;;;;;;4987327;28;20042;-55
2021/08/25 03:57:15;;;;;;;8.70;3.78;;;;;;;;;;4970074;28;20064;-52
2021/08/25 03:59:42;;;;;;;8.95;4.00;;;;;;;;;;4979008;28;20053;-55
2021/08/25 04:02:09;;;;;;;9.65;3.95;;;;;;;;;;4986577;28;20050;-53
2021/08/25 04:04:37;;;;;;;9.25;3.65;;;;;;;;;;4980867;28;20050;-54
2021/08/25 04:07:03;;;;;;;10.80;3.80;;;;;;;;;;4965119;28;20095;-54
2021/08/25 04:09:30;;;;;;;9.98;3.83;;;;;;;;;;4961777;28;20050;-51
2021/08/25 04:11:57;;;;;;;7.53;3.50;;;;;;;;;;4979381;28;20067;-54
2021/08/25 04:14:23;;;;;;;8.90;3.95;;;;;;;;;;4966380;28;20109;-49
2021/08/25 04:16:49;;;;;;;8.77;3.50;;;;;;;;;;4985295;28;20039;-56
2021/08/25 04:19:17;;;;;;;7.30;3.55;;;;;;;;;;4978904;28;20050;-55
2021/08/25 04:21:44;;;;;;;7.95;3.58;;;;;;;;;;4965137;28;20058;-54
2021/08/25 04:24:11;;;;;;;9.70;4.03;;;;;;;;;;4978475;28;20043;-54
2021/08/25 04:26:37;;;;;;;10.80;3.92;;;;;;;;;;4965374;28;20053;-54
2021/08/25 04:29:04;;;;;;;9.68;3.70;;;;;;;;;;4963311;28;20051;-56
2021/08/25 04:31:31;;;;;;;8.13;3.45;;;;;;;;;;4964000;28;20051;-55
2021/08/25 04:33:57;;;;;;;9.30;3.40;;;;;;;;;;4979688;28;20067;-56
2021/08/25 04:36:24;;;;;;;8.98;3.95;;;;;;;;;;4972966;28;20042;-54
2021/08/25 04:38:52;;;;;;;7.30;3.50;;;;;;;;;;4948653;28;20051;-55
2021/08/25 04:41:18;;;;;;;7.72;3.50;;;;;;;;;;4964645;28;20046;-55
2021/08/25 04:43:45;;;;;;;10.43;3.50;;;;;;;;;;4999800;28;20042;-54
2021/08/25 04:46:15;;;;;;;7.53;3.88;;;;;;;;;;4975734;28;20055;-54
2021/08/25 04:48:41;;;;;;;13.30;4.22;;;;;;;;;;4963695;28;20035;-52
2021/08/25 04:51:10;;;;;;;9.45;3.67;;;;;;;;;;4960600;28;20093;-55
2021/08/25 04:53:36;;;;;;;8.20;3.53;;;;;;;;;;4962897;28;20054;-55
2021/08/25 04:56:04;;;;;;;8.63;3.70;;;;;;;;;;4979158;28;20049;-54
2021/08/25 04:58:32;;;;;;;6.55;3.35;;;;;;;;;;4985039;28;20042;-54
2021/08/25 05:00:59;;;;;;;7.50;3.77;;;;;;;;;;4976078;28;20050;-53
2021/08/25 05:03:25;;;;;;;9.75;3.97;;;;;;;;;;4979898;28;20050;-55
2021/08/25 05:05:52;;;;;;;11.15;4.15;;;;;;;;;;4960881;28;20035;-55
2021/08/25 05:08:18;;;;;;;15.00;4.70;;;;;;;;;;4981931;28;20113;-55
2021/08/25 05:10:46;;;;;;;10.63;4.32;;;;;;;;;;4984800;28;20034;-55
2021/08/25 05:13:14;;;;;;;7.68;4.00;;;;;;;;;;4964023;28;20039;-53
2021/08/25 05:15:43;;;;;;;12.87;4.33;;;;;;;;;;4983857;28;20034;-55
2021/08/25 05:18:10;;;;;;;12.02;3.83;;;;;;;;;;4993910;28;20054;-54
2021/08/25 05:20:37;;;;;;;10.60;3.90;;;;;;;;;;4981285;28;20052;-55
2021/08/25 05:23:03;;;;;;;11.43;4.82;;;;;;;;;;4973675;28;20062;-55
2021/08/25 05:25:30;;;;;;;11.65;4.38;;;;;;;;;;4984066;28;20057;-55
2021/08/25 05:27:56;;;;;;;10.70;4.45;;;;;;;;;;4971500;28;20072;-55
2021/08/25 05:30:27;;;;;;;12.15;4.40;;;;;;;;;;4999004;28;20046;-53
2021/08/25 05:32:53;;;;;;;9.90;4.53;;;;;;;;;;4994808;28;20059;-54
2021/08/25 05:35:20;;;;;;;14.32;6.07;;;;;;;;;;4980258;28;20057;-55
2021/08/25 05:37:47;;;;;;;18.42;8.07;;;;;;;;;;4991741;28;20042;-53
2021/08/25 05:40:13;;;;;;;15.68;6.45;;;;;;;;;;4979078;28;20135;-53
2021/08/25 05:42:46;;;;;;;14.35;5.47;;;;;;;;;;4993188;28;20128;-53
2021/08/25 05:45:13;;;;;;;9.63;4.85;;;;;;;;;;4980307;28;20026;-54
2021/08/25 05:47:41;;;;;;;9.73;4.20;;;;;;;;;;4977202;28;20124;-52
2021/08/25 05:50:10;;;;;;;9.32;4.43;;;;;;;;;;4958851;28;20043;-55
2021/08/25 05:52:46;;;;;;;12.50;4.88;;;;;;;;;;4972864;28;20405;-55
2021/08/25 05:55:15;;;;;;;16.38;7.07;;;;;;;;;;4995379;28;20050;-52
2021/08/25 05:57:45;;;;;;;10.63;5.13;;;;;;;;;;4982229;28;20042;-53
2021/08/25 06:00:14;;;;;;;12.30;5.05;;;;;;;;;;4964083;28;20042;-54
2021/08/25 06:02:45;;;;;;;11.65;5.30;;;;;;;;;;4964809;28;20030;-54
2021/08/25 06:05:11;;;;;;;10.10;4.40;;;;;;;;;;4976477;28;20049;-53
2021/08/25 06:07:38;;;;;;;11.55;4.65;;;;;;;;;;4982431;28;20074;-54
2021/08/25 06:10:09;;;;;;;12.43;4.93;;;;;;;;;;4961863;28;20060;-56
2021/08/25 06:12:37;;;;;;;10.30;4.63;;;;;;;;;;4981276;28;20053;-54
2021/08/25 06:15:04;;;;;;;13.00;5.20;;;;;;;;;;4974268;28;20049;-53
2021/08/25 06:17:32;;;;;;;10.88;5.55;;;;;;;;;;5000436;28;20096;-55
2021/08/25 06:20:01;;;;;;;12.50;5.50;;;;;;;;;;4988043;28;20038;-56
2021/08/25 06:22:27;;;;;;;14.20;5.70;;;;;;;;;;4982452;28;20039;-54
2021/08/25 06:24:54;;;;;;;11.80;5.60;;;;;;;;;;4981054;28;20089;-55
2021/08/25 06:27:20;;;;;;;12.88;5.55;;;;;;;;;;4982721;28;20038;-54
2021/08/25 06:29:48;;;;;;;12.45;5.35;;;;;;;;;;4988406;28;20051;-55
2021/08/25 06:32:15;;;;;;;11.43;5.65;;;;;;;;;;4966680;28;20043;-56
2021/08/25 06:34:42;;;;;;;14.77;5.43;;;;;;;;;;4982597;28;20042;-53
2021/08/25 06:37:09;;;;;;;13.10;5.70;;;;;;;;;;4991764;28;20124;-55
2021/08/25 06:39:36;;;;;;;11.97;5.63;;;;;;;;;;4998123;28;20061;-55
2021/08/25 06:42:03;;;;;;;13.82;5.70;;;;;;;;;;4982842;28;20038;-55
2021/08/25 06:44:29;;;;;;;13.23;5.35;;;;;;;;;;4968077;28;20041;-53
2021/08/25 06:46:56;;;;;;;13.15;5.63;;;;;;;;;;4969453;28;20101;-55
2021/08/25 06:49:24;;;;;;;10.98;5.15;;;;;;;;;;4964700;28;20043;-54
2021/08/25 06:51:50;;;;;;;14.57;5.65;;;;;;;;;;4979109;28;20185;-54
2021/08/25 06:54:18;;;;;;;11.40;6.05;;;;;;;;;;4998418;28;20057;-54
2021/08/25 06:56:44;;;;;;;13.93;5.75;;;;;;;;;;4963490;28;20051;-54
2021/08/25 06:59:12;;;;;;;15.02;6.50;;;;;;;;;;4984341;28;20037;-54
2021/08/25 07:01:39;;;;;;;16.35;7.18;;;;;;;;;;4981001;28;20031;-57
2021/08/25 07:04:05;;;;;;;16.95;8.95;;;;;;;;;;4967853;28;20054;-53
2021/08/25 07:06:31;;;;;;;17.02;7.32;;;;;;;;;;4967564;28;20046;-54
2021/08/25 07:08:59;;;;;;;15.77;7.07;;;;;;;;;;4981774;28;20049;-56
2021/08/25 07:11:31;;;;;;;14.73;6.70;;;;;;;;;;4975330;28;20038;-56
2021/08/25 07:13:57;;;;;;;17.70;7.20;;;;;;;;;;4960673;28;20107;-54
2021/08/25 07:16:24;;;;;;;17.80;7.22;;;;;;;;;;4961164;28;20050;-55
2021/08/25 07:18:50;;;;;;;14.18;7.28;;;;;;;;;;4977521;28;20054;-53
2021/08/25 07:21:17;;;;;;;17.35;6.68;;;;;;;;;;4970510;28;20047;-54
2021/08/25 07:23:48;;;;;;;15.77;6.65;;;;;;;;;;4980234;28;20035;-55
2021/08/25 07:26:14;;;;;;;14.05;7.03;;;;;;;;;;4960948;28;20062;-55
2021/08/25 07:28:44;;;;;;;16.90;7.10;;;;;;;;;;4979757;28;20114;-55
2021/08/25 07:31:10;;;;;;;15.27;6.70;;;;;;;;;;4964028;28;20048;-55
2021/08/25 07:33:39;;;;;;;15.15;7.20;;;;;;;;;;4978306;28;20063;-53
2021/08/25 07:36:05;;;;;;;12.52;6.70;;;;;;;;;;4965304;28;20036;-55
2021/08/25 07:38:31;;;;;;;12.90;6.18;;;;;;;;;;4978746;28;20051;-54
2021/08/25 07:40:58;;;;;;;12.18;6.30;;;;;;;;;;4980947;28;20090;-55
2021/08/25 07:43:24;;;;;;;18.77;7.47;;;;;;;;;;4977300;28;20043;-55
2021/08/25 07:45:52;;;;;;;13.20;6.63;;;;;;;;;;4966721;28;20050;-56
2021/08/25 07:48:21;;;;;;;15.93;7.03;;;;;;;;;;4977442;28;20055;-54
2021/08/25 07:50:49;;;;;;;15.63;6.47;;;;;;;;;;4963059;28;20043;-56
2021/08/25 07:53:16;;;;;;;18.60;6.88;;;;;;;;;;4963227;28;20097;-55
2021/08/25 07:55:42;;;;;;;13.63;6.18;;;;;;;;;;4994740;28;20075;-54
2021/08/25 07:58:09;;;;;;;14.45;7.20;;;;;;;;;;4996927;28;20046;-54
2021/08/25 08:00:35;;;;;;;17.08;5.95;;;;;;;;;;4986686;28;20042;-56
2021/08/25 08:03:03;;;;;;;14.48;7.30;;;;;;;;;;4992866;28;20055;-55
2021/08/25 08:05:30;;;;;;;13.63;7.00;;;;;;;;;;4964482;28;20053;-55
2021/08/25 08:07:57;;;;;;;14.88;6.32;;;;;;;;;;4961758;28;20050;-56
2021/08/25 08:10:23;;;;;;;12.52;6.35;;;;;;;;;;4966645;28;20043;-56
2021/08/25 08:12:50;;;;;;;11.05;5.78;;;;;;;;;;4980650;28;20039;-55
2021/08/25 08:15:17;;;;;;;13.90;6.10;;;;;;;;;;4993855;28;20395;-55
2021/08/25 08:17:45;;;;;;;18.52;6.70;;;;;;;;;;4968132;28;20049;-54
2021/08/25 08:20:12;;;;;;;;;;;;;;;;;;4977067;28;20070;-55
2021/08/25 08:22:40;;;;;;;13.20;5.28;;;;;;;;;;4962877;28;19922;-54
2021/08/25 08:25:06;;;;;;;10.98;6.03;;;;;;;;;;4967012;28;20043;-54
2021/08/25 08:27:33;;;;;;;15.70;6.00;;;;;;;;;;4979430;28;20090;-55
2021/08/25 08:30:01;;;;;;;15.68;5.65;;;;;;;;;;4973388;28;20038;-56
2021/08/25 08:32:27;;;;;;;11.05;5.68;;;;;;;;;;4968543;28;20042;-56
2021/08/25 08:34:54;;;;;;;17.63;6.63;;;;;;;;;;4988263;28;20412;-56
2021/08/25 08:37:20;;;;;;;15.75;5.93;;;;;;;;;;4966883;28;20043;-57
2021/08/25 08:39:48;;;;;;;12.23;5.63;;;;;;;;;;4966622;28;20054;-57
2021/08/25 08:42:28;;;;;;;10.77;5.10;;;;;;;;;;4983958;28;20038;-56
2021/08/25 08:44:56;;;;;;;10.20;5.10;;;;;;;;;;4973307;28;20125;-55
2021/08/25 08:47:23;;;;;;;11.30;5.72;;;;;;;;;;4947163;28;20038;-54
2021/08/25 08:49:51;;;;;;;18.63;5.70;;;;;;;;;;4962997;28;20094;-56
2021/08/25 08:52:18;;;;;;;10.77;5.05;;;;;;;;;;4964035;28;20062;-53
2021/08/25 08:54:45;;;;;;;19.67;5.55;;;;;;;;;;4962023;28;20046;-58
2021/08/25 08:57:12;;;;;;;13.50;5.50;;;;;;;;;;4962569;28;20031;-56
2021/08/25 08:59:39;;;;;;;14.63;5.33;;;;;;;;;;4964008;28;20058;-57
2021/08/25 09:02:06;;;;;;;9.57;4.25;;;;;;;;;;4962209;28;20047;-56
2021/08/25 09:04:33;;;;;;;12.40;5.35;;;;;;;;;;4964196;28;20042;-56
2021/08/25 09:06:59;;;;;;;12.52;5.13;;;;;;;;;;4991702;28;20053;-57
2021/08/25 09:09:28;;;;;;;13.60;6.05;;;;;;;;;;4982550;28;20054;-57
2021/08/25 09:11:54;;;;;;;;;;;;;;;;;;4978241;28;20047;-57
2021/08/25 09:14:24;;;;;;;9.32;3.40;;;;;;;;;;4978449;28;19922;-57
2021/08/25 09:16:53;;;;;;;9.38;4.70;;;;;;;;;;4974692;28;20466;-56
2021/08/25 09:19:25;;;;;;;;;;;;;;;;;;4965596;28;20042;-56
2021/08/25 09:21:54;;;;;;;14.10;4.32;;;;;;;;;;4959383;28;19933;-55
2021/08/25 09:24:22;;;;;;;11.85;4.82;;;;;;;;;;4963600;28;20057;-57
2021/08/25 09:27:08;;;;;;;13.85;4.68;;;;;;;;;;4968307;28;20062;-57
2021/08/25 09:29:36;;;;;;;12.23;4.90;;;;;;;;;;4996573;28;20047;-57
2021/08/25 09:32:03;;;;;;;12.05;4.32;;;;;;;;;;4962414;28;20051;-57
2021/08/25 09:34:30;;;;;;;11.93;4.30;;;;;;;;;;4984764;28;20046;-56
2021/08/25 09:37:06;;;;;;;11.13;4.80;;;;;;;;;;4981080;28;20026;-57
2021/08/25 09:39:33;;;;;;;10.82;4.75;;;;;;;;;;4984827;28;20046;-57
2021/08/25 09:42:00;;;;;;;9.35;4.45;;;;;;;;;;4958486;28;20057;-56
2021/08/25 09:44:28;;;;;;;14.60;5.60;;;;;;;;;;4962968;28;20046;-57
2021/08/25 09:46:55;;;;;;;13.27;5.43;;;;;;;;;;4959217;28;20039;-59
2021/08/25 09:49:23;;;;;;;13.17;6.30;;;;;;;;;;4963173;28;20129;-58
2021/08/25 09:51:51;;;;;;;12.93;5.32;;;;;;;;;;4978911;28;20293;-58
2021/08/25 09:54:19;;;;;;;10.33;4.13;;;;;;;;;;4981771;28;20046;-58
2021/08/25 09:56:45;;;;;;;10.98;4.55;;;;;;;;;;4981516;28;20426;-58
2021/08/25 09:59:13;;;;;;;8.98;4.40;;;;;;;;;;4975680;28;20134;-59
2021/08/25 10:01:40;;;;;;;11.82;4.75;;;;;;;;;;4963000;28;20039;-58
2021/08/25 10:04:09;;;;;;;11.15;4.47;;;;;;;;;;4960827;28;20125;-58
2021/08/25 10:06:36;;;;;;;10.05;4.70;;;;;;;;;;4972087;28;20034;-58
2021/08/25 10:09:05;;;;;;;11.35;4.38;;;;;;;;;;4992095;28;20048;-57
2021/08/25 10:11:32;;;;;;;10.18;4.50;;;;;;;;;;4989122;28;20304;-56
2021/08/25 10:13:59;;;;;;;12.48;5.22;;;;;;;;;;4979865;28;20105;-57
2021/08/25 10:16:53;;;;;;;15.00;4.70;;;;;;;;;;4983198;28;20034;-57
2021/08/25 10:19:37;;;;;;;15.57;5.07;;;;;;;;;;4938390;28;20042;-58
2021/08/25 10:22:05;;;;;;;12.88;5.35;;;;;;;;;;4986121;28;20031;-58
2021/08/25 10:24:59;;;;;;;13.13;5.63;;;;;;;;;;4981246;28;20058;-57
2021/08/25 10:27:29;;;;;;;15.35;4.80;;;;;;;;;;4984775;28;20049;-58
2021/08/25 10:30:07;;;;;;;16.13;5.25;;;;;;;;;;4979917;28;20054;-57
2021/08/25 10:32:34;;;;;;;10.20;4.70;;;;;;;;;;5000389;28;20048;-58
2021/08/25 10:35:25;;;;;;;16.42;5.78;;;;;;;;;;4997700;28;20104;-58
2021/08/25 10:37:52;;;;;;;13.18;5.93;;;;;;;;;;5001056;28;20054;-58
2021/08/25 10:40:19;;;;;;;15.82;6.20;;;;;;;;;;4985019;28;20043;-58
2021/08/25 10:42:54;;;;;;;15.63;6.72;;;;;;;;;;4982346;28;20050;-58
2021/08/25 10:45:39;;;;;;;14.27;6.25;;;;;;;;;;4980835;28;20050;-58
2021/08/25 10:48:08;;;;;;;14.48;7.25;;;;;;;;;;4980748;28;20047;-58
2021/08/25 10:50:50;;;;;;;13.25;7.10;;;;;;;;;;4977139;28;20039;-57
2021/08/25 10:53:36;;;;;;;19.23;5.60;;;;;;;;;;4980696;28;20046;-58
2021/08/25 10:56:04;;;;;;;11.30;5.03;;;;;;;;;;4979818;28;20079;-58
2021/08/25 10:58:32;;;;;;;;;;;;;;;;;;4984703;28;20042;-58
2021/08/25 11:00:58;;;;;;;12.70;5.60;;;;;;;;;;4981706;28;19922;-58
2021/08/25 11:03:34;;;;;;;13.13;4.65;;;;;;;;;;4967666;28;20043;-58
2021/08/25 11:06:02;;;;;;;11.07;5.72;;;;;;;;;;4981863;28;20066;-57
2021/08/25 11:08:28;;;;;;;12.60;4.85;;;;;;;;;;4968245;28;20054;-57
2021/08/25 11:10:54;;;;;;;11.15;4.53;;;;;;;;;;4983695;28;20038;-58
2021/08/25 11:13:36;;;;;;;13.50;4.90;;;;;;;;;;4984395;28;20054;-56
2021/08/25 11:16:02;;;;;;;10.93;4.38;;;;;;;;;;4972200;28;20046;-57
2021/08/25 11:18:35;;;;;;;13.25;3.72;;;;;;;;;;4988167;28;20038;-58
2021/08/25 11:21:07;;;;;;;10.23;2.60;;;;;;;;;;4979005;28;20035;-58
2021/08/25 11:23:48;;;;;;;11.35;3.22;;;;;;;;;;4984410;28;20043;-58
2021/08/25 11:26:14;;;;;;;9.20;3.95;;;;;;;;;;4970174;28;20057;-58
2021/08/25 11:28:42;;;;;;;8.98;3.38;;;;;;;;;;5003992;28;20092;-59
2021/08/25 11:31:08;;;;;;;7.83;3.33;;;;;;;;;;4992742;28;20058;-58
2021/08/25 11:33:35;;;;;;;12.27;3.92;;;;;;;;;;4986447;28;20058;-58
2021/08/25 11:36:03;;;;;;;11.35;3.67;;;;;;;;;;4977346;28;20120;-58
2021/08/25 11:38:35;;;;;;;10.70;3.92;;;;;;;;;;4969298;28;20050;-58
2021/08/25 11:41:01;;;;;;;16.88;6.38;;;;;;;;;;4969604;28;20039;-59
2021/08/25 11:43:28;;;;;;;10.73;4.10;;;;;;;;;;4983293;28;20056;-59
2021/08/25 11:45:55;;;;;;;13.32;4.38;;;;;;;;;;5007872;28;20084;-59
2021/08/25 11:48:25;;;;;;;11.90;4.20;;;;;;;;;;4983922;28;20085;-59
2021/08/25 11:50:52;;;;;;;7.70;3.45;;;;;;;;;;5002089;28;20161;-59
2021/08/25 11:53:19;;;;;;;8.93;3.50;;;;;;;;;;4984702;28;20034;-58
2021/08/25 11:55:48;;;;;;;10.88;3.85;;;;;;;;;;4981391;28;20150;-58
2021/08/25 11:58:21;;;;;;;12.88;3.90;;;;;;;;;;4979278;28;20050;-58
2021/08/25 12:00:47;;;;;;;9.10;4.65;;;;;;;;;;4985294;28;20038;-59
2021/08/25 12:03:14;;;;;;;9.80;3.75;;;;;;;;;;4983663;28;20128;-58
2021/08/25 12:05:44;;;;;;;8.45;3.70;;;;;;;;;;4987470;28;20049;-59
2021/08/25 12:08:12;;;;;;;13.75;3.97;;;;;;;;;;4978790;28;20078;-58
2021/08/25 12:10:40;;;;;;;9.60;3.75;;;;;;;;;;4967853;28;20047;-58
2021/08/25 12:13:08;;;;;;;8.05;3.35;;;;;;;;;;4982195;28;20090;-59
2021/08/25 12:15:45;;;;;;;10.98;4.10;;;;;;;;;;4983585;28;20058;-58
2021/08/25 12:18:11;;;;;;;11.10;4.82;;;;;;;;;;4965576;28;20034;-57
2021/08/25 12:20:41;;;;;;;8.30;3.42;;;;;;;;;;4968260;28;20038;-57
2021/08/25 12:23:09;;;;;;;9.48;3.08;;;;;;;;;;4965717;28;20038;-58
2021/08/25 12:25:38;;;;;;;6.50;2.83;;;;;;;;;;4984117;28;20053;-59
2021/08/25 12:28:05;;;;;;;9.07;3.80;;;;;;;;;;4981711;28;20060;-58
2021/08/25 12:30:35;;;;;;;8.13;3.40;;;;;;;;;;4967069;28;20039;-58
2021/08/25 12:33:04;;;;;;;6.20;2.58;;;;;;;;;;4967578;28;20081;-58
2021/08/25 12:35:31;;;;;;;9.00;2.92;;;;;;;;;;4980587;28;20035;-57
2021/08/25 12:37:57;;;;;;;5.97;2.50;;;;;;;;;;4984038;28;20038;-58
2021/08/25 12:40:29;;;;;;;7.65;2.50;;;;;;;;;;4996578;28;20038;-58
2021/08/25 12:42:55;;;;;;;7.07;2.20;;;;;;;;;;5001989;28;20056;-58
2021/08/25 12:45:22;;;;;;;8.93;2.38;;;;;;;;;;4983375;28;20046;-57
2021/08/25 12:47:50;;;;;;;4.47;2.08;;;;;;;;;;4971133;28;20034;-58
2021/08/25 12:50:18;;;;;;;;;;;;;;;;;;4987808;28;20049;-58
2021/08/25 12:52:44;;;;;;;5.82;1.90;;;;;;;;;;4965437;28;19922;-58
2021/08/25 12:55:13;;;;;;;5.35;2.03;;;;;;;;;;4979040;28;20056;-58
2021/08/25 12:57:40;;;;;;;4.50;1.95;;;;;;;;;;4986823;28;20062;-57
2021/08/25 13:00:08;;;;;;;5.88;2.22;;;;;;;;;;4983296;28;20042;-58
2021/08/25 13:02:34;;;;;;;6.03;1.77;;;;;;;;;;4985897;28;20052;-58
2021/08/25 13:05:02;;;;;;;7.28;2.08;;;;;;;;;;4977159;28;20105;-59
2021/08/25 13:07:29;;;;;;;6.18;2.00;;;;;;;;;;4966318;28;20039;-57
2021/08/25 13:09:55;;;;;;;6.43;2.00;;;;;;;;;;4944529;28;20129;-58
2021/08/25 13:12:23;;;;;;;3.67;1.80;;;;;;;;;;4963725;28;20108;-57
2021/08/25 13:14:49;;;;;;;8.93;2.20;;;;;;;;;;4944776;28;20063;-58
2021/08/25 13:17:16;;;;;;;3.83;1.45;;;;;;;;;;4946745;28;20062;-57
2021/08/25 13:19:46;;;;;;;10.27;1.98;;;;;;;;;;4944716;28;20131;-56
2021/08/25 13:22:13;;;;;;;5.90;2.03;;;;;;;;;;4961675;28;20051;-56
2021/08/25 13:24:40;;;;;;;3.95;1.60;;;;;;;;;;4965129;28;20122;-56
2021/08/25 13:27:06;;;;;;;5.47;1.65;;;;;;;;;;4950056;28;20062;-57
2021/08/25 13:29:34;;;;;;;7.30;1.60;;;;;;;;;;4947401;28;20047;-57
2021/08/25 13:32:01;;;;;;;9.15;2.00;;;;;;;;;;4959455;28;20035;-58
2021/08/25 13:34:30;;;;;;;4.53;1.80;;;;;;;;;;4965811;28;20050;-56
2021/08/25 13:36:56;;;;;;;7.30;1.90;;;;;;;;;;4954167;28;20129;-58
2021/08/25 13:39:24;;;;;;;3.95;1.63;;;;;;;;;;4963924;28;20043;-57
2021/08/25 13:41:51;;;;;;;3.20;1.67;;;;;;;;;;4958617;28;20121;-57
2021/08/25 13:44:17;;;;;;;7.43;1.98;;;;;;;;;;4959693;28;20047;-57
2021/08/25 13:46:43;;;;;;;11.43;2.00;;;;;;;;;;4956291;28;20069;-58
2021/08/25 13:49:10;;;;;;;5.40;1.80;;;;;;;;;;4945491;28;20039;-56
2021/08/25 13:51:37;;;;;;;5.32;1.98;;;;;;;;;;4941048;28;20058;-56
2021/08/25 13:54:06;;;;;;;5.88;2.10;;;;;;;;;;4954928;28;20045;-57
2021/08/25 13:56:34;;;;;;;6.35;1.63;;;;;;;;;;4956362;28;20066;-57
2021/08/25 13:59:01;;;;;;;4.50;1.70;;;;;;;;;;4942387;28;20051;-58
2021/08/25 14:01:28;;;;;;;4.82;2.10;;;;;;;;;;4943935;28;20051;-58
2021/08/25 14:03:54;;;;;;;7.07;1.85;;;;;;;;;;4956024;28;20027;-57
2021/08/25 14:06:21;;;;;;;8.52;2.00;;;;;;;;;;4947258;28;20105;-57
2021/08/25 14:08:49;;;;;;;6.40;1.88;;;;;;;;;;4958246;28;20026;-57
2021/08/25 14:11:16;;;;;;;10.70;2.03;;;;;;;;;;4950718;28;20035;-59
2021/08/25 14:13:44;;;;;;;5.80;1.80;;;;;;;;;;4940517;28;20297;-57
2021/08/25 14:16:11;;;;;;;8.82;2.08;;;;;;;;;;4936198;28;20047;-56
2021/08/25 14:18:37;;;;;;;4.78;1.63;;;;;;;;;;4949100;28;20114;-58
2021/08/25 14:21:04;;;;;;;5.50;1.80;;;;;;;;;;4945081;28;20043;-57
2021/08/25 14:23:31;;;;;;;6.88;2.30;;;;;;;;;;4949499;28;20050;-57
2021/08/25 14:26:01;;;;;;;4.05;1.60;;;;;;;;;;4964845;28;20055;-57
2021/08/25 14:28:28;;;;;;;7.47;1.80;;;;;;;;;;4949040;28;20055;-56
2021/08/25 14:30:56;;;;;;;4.40;1.30;;;;;;;;;;4941774;28;20047;-57
2021/08/25 14:33:23;;;;;;;4.18;1.55;;;;;;;;;;4943643;28;20043;-57
2021/08/25 14:35:50;;;;;;;3.35;1.25;;;;;;;;;;4979394;28;20054;-57
2021/08/25 14:38:17;;;;;;;6.68;1.80;;;;;;;;;;4976523;28;20051;-57
2021/08/25 14:40:45;;;;;;;3.30;1.40;;;;;;;;;;4977699;28;20117;-57
2021/08/25 14:43:12;;;;;;;1.95;1.17;;;;;;;;;;4960660;28;20066;-55